Flight Track Log - Related Links

Times and Time Zones

All times are in EDT time to prevent confusion due to time zone crossing. See the SWA1969 flight status page for this flight to view local times or setup timezone preferences in your user account.

Time Position Orientation Groundspeed Altitude Reporting Facility
EDT Latitude Longitude Course Direction KTS MPH feet Rate Location/Type
Fri 11:13:32 AM 39.3833 -94.6667 23° Northeast 231 266 4,700  Level Kansas City TRACON
Fri 11:14:09 AM 39.4075 -94.6378 43° Northeast 249 287 5,900 3,278 Climbing Kansas City Center
Fri 11:15:09 AM 39.4661 -94.5569 47° Northeast 275 316 10,000 2,952 Climbing Kansas City Center
Fri 11:16:13 AM 39.5214 -94.4778 48° Northeast 314 361 12,000 2,516 Climbing Kansas City Center
Fri 11:17:13 AM 39.5883 -94.3614 53° Northeast 358 412 15,200 2,803 Climbing Kansas City Center
Fri 11:18:15 AM 39.6533 -94.2578 51° Northeast 386 444 17,700 2,381 Climbing Kansas City Center
Fri 11:19:19 AM 39.7156 -94.1450 54° Northeast 400 460 20,200 2,496 Climbing Kansas City Center
Fri 11:20:20 AM 39.7906 -94.0047 55° Northeast 422 486 22,900 2,115 Climbing Kansas City Center
Fri 11:21:21 AM 39.8367 -93.8786 65° Northeast 431 496 24,500 1,872 Climbing Kansas City Center
Fri 11:22:25 AM 39.8764 -93.6950 74° East 441 507 26,800 2,032 Climbing Kansas City Center
Fri 11:23:25 AM 39.9136 -93.5414 72° East 447 514 28,700 1,597 Climbing Kansas City Center
Fri 11:24:29 AM 39.9472 -93.3811 75° East 457 526 30,100 1,113 Climbing Kansas City Center
Fri 11:25:29 AM 39.9850 -93.2181 73° East 471 542 31,000 435 Climbing Kansas City Center
Fri 11:26:33 AM 40.0211 -93.0558 74° East 466 536 31,000  Level Kansas City Center
Fri 11:27:34 AM 40.0619 -92.8647 74° East 465 535 31,000  Level Kansas City Center
Fri 11:28:38 AM 40.0981 -92.6928 75° East 462 532 31,000  Level Kansas City Center
Fri 11:29:38 AM 40.1303 -92.5378 75° East 463 533 31,000  Level Kansas City Center
Fri 11:30:42 AM 40.1719 -92.3572 73° East 464 534 31,000  Level Kansas City Center
Fri 11:31:42 AM 40.2033 -92.1956 76° East 468 539 31,000  Level Kansas City Center
Fri 11:32:44 AM 40.2372 -92.0358 74° East 463 533 31,000  Level Kansas City Center
Fri 11:33:48 AM 40.2700 -91.8736 75° East 464 534 31,000  Level Kansas City Center
Fri 11:34:49 AM 40.3028 -91.7106 75° East 466 536 31,000  Level Kansas City Center
Fri 11:35:52 AM 40.3436 -91.5131 75° East 470 541 31,000  Level Kansas City Center
Fri 11:36:53 AM 40.3772 -91.3483 75° East 471 542 31,000  Level Kansas City Center
Fri 11:37:23 AM 40.3958 -91.2667 73° East 471 542 31,000  Level Chicago Center
Fri 11:38:25 AM 40.4278 -91.1006 76° East 471 542 31,000  Level Chicago Center
Fri 11:39:27 AM 40.4614 -90.9353 75° East 470 541 31,000 -145 Level Chicago Center
Fri 11:40:29 AM 40.4939 -90.7686 76° East 471 542 30,700 -726 Descending Chicago Center
Fri 11:41:31 AM 40.5314 -90.5714 76° East 464 534 29,500 -1,073 Descending Chicago Center
Fri 11:42:32 AM 40.5633 -90.4092 75° East 460 529 28,500 -976 Descending Chicago Center
Fri 11:43:34 AM 40.5931 -90.2558 76° East 437 503 27,500 -968 Descending Chicago Center
Fri 11:44:36 AM 40.6189 -90.1192 76° East 424 488 26,500 -1,016 Descending Chicago Center
Fri 11:45:38 AM 40.6519 -89.9417 76° East 418 481 25,400 -1,220 Descending Chicago Center
Fri 11:46:39 AM 40.6783 -89.7953 77° East 413 475 24,000 -1,512 Descending Chicago Center
Fri 11:47:41 AM 40.7283 -89.6692 62° Northeast 394 453 22,300 -1,597 Descending Chicago Center
Fri 11:48:43 AM 40.7833 -89.5483 59° Northeast 387 445 20,700 -1,548 Descending Chicago Center
Fri 11:49:45 AM 40.8392 -89.4264 59° Northeast 387 445 19,100 -1,707 Descending Chicago Center
Fri 11:50:46 AM 40.8894 -89.3081 61° Northeast 374 430 17,200 -1,171 Descending Chicago Center
Fri 11:51:48 AM 40.9392 -89.1911 61° Northeast 367 422 16,700 -823 Descending Chicago Center
Fri 11:52:50 AM 40.9983 -89.0517 61° Northeast 363 418 15,500 -1,073 Descending Chicago Center
Fri 11:53:51 AM 41.0456 -88.9397 61° Northeast 358 412 14,500 -1,024 Descending Chicago Center
Fri 11:54:53 AM 41.0936 -88.8247 61° Northeast 357 411 13,400 -1,355 Descending Chicago Center
Fri 11:55:55 AM 41.1567 -88.7331 48° Northeast 340 391 11,700 -1,597 Descending Chicago Center
Fri 11:56:57 AM 41.2283 -88.6558 39° Northeast 331 381 10,100 -1,561 Descending Chicago Center
Fri 11:57:58 AM 41.2953 -88.5867 38° Northeast 310 357 8,500 -1,610 Descending Chicago Center
Fri 11:59:00 AM 41.3728 -88.5031 39° Northeast 300 345 6,800 -1,258 Descending Chicago Center
Fri 12:00:02 PM 41.4358 -88.4356 39° Northeast 293 337 5,900 -878 Descending Chicago Center
Fri 12:01:03 PM 41.4836 -88.3542 52° Northeast 293 337 5,000 -1,073 Descending Chicago Center
Fri 12:02:05 PM 41.5069 -88.2500 73° East 290 334 3,700 -1,016 Descending Chicago Center
Fri 12:03:07 PM 41.5233 -88.1417 79° East 292 336 2,900 -387 Descending Chicago Center
Fri 12:04:09 PM 41.5347 -88.0328 82° East 292 336 2,900  Level Chicago Center
Fri 12:05:10 PM 41.5383 -87.9258 87° East 288 331 2,900  Level Chicago Center
Fri 12:06:12 PM 41.5442 -87.8400 85° East 250 288 2,900  Level Chicago Center
Fri 12:07:14 PM 41.5494 -87.7622 85° East 223 257 2,900  Level Chicago Center
Fri 12:08:16 PM 41.5536 -87.6672 87° East 216 249 2,900  Level Chicago Center
Fri 12:09:17 PM 41.5261 -87.6022 119° Southeast 204 235 2,900  Level Chicago Center
Fri 12:10:19 PM 41.5258 -87.5356 90° East 215 247 2,900  Level Chicago Center
Fri 12:11:21 PM 41.5644 -87.4831 45° Northeast 209 241 2,900  Level Chicago Center
Fri 12:12:23 PM 41.6106 -87.5042 341° North 187 215 2,900  Level Chicago Center
Fri 12:13:24 PM 41.6389 -87.5478 311° West 168 193 2,900 -162 Level Chicago Center
Fri 12:15:28 PM 41.7050 -87.6400 314° West 158 182 2,400 -161 Descending Chicago Center
Fri 12:16:30 PM 41.7444 -87.6631 336° Northwest 174 200 2,400 -67 Level Chicago Center
Fri 12:16:58 PM 41.7667 -87.6667 353° North 181 208 2,300 -539 Descending Chicago TRACON
Fri 12:17:59 PM 41.8167 -87.7000 334° Northwest 148 170 1,600 -678 Descending Chicago TRACON
Fri 12:18:53 PM 41.8000 -87.7333 236° Southwest 129 148 1,000 -667 Descending Chicago TRACON

Login

Don't have an account? Register now (free) for customized features, flight alerts, and more!